sensor_id;sensor_type;location;lat;lon;timestamp;P1;durP1;ratioP1;P2;durP2;ratioP2
52124;SDS011;38119;52.710;6.398;2023-04-12T00:01:01;11.30;;;2.65;;
52124;SDS011;38119;52.710;6.398;2023-04-12T00:03:27;8.20;;;3.00;;
52124;SDS011;38119;52.710;6.398;2023-04-12T00:05:54;8.25;;;2.30;;
52124;SDS011;38119;52.710;6.398;2023-04-12T00:08:20;11.55;;;2.80;;
52124;SDS011;38119;52.710;6.398;2023-04-12T00:11:00;9.00;;;2.80;;
52124;SDS011;38119;52.710;6.398;2023-04-12T00:13:27;10.77;;;2.63;;
52124;SDS011;38119;52.710;6.398;2023-04-12T00:15:53;11.00;;;2.60;;
52124;SDS011;38119;52.710;6.398;2023-04-12T00:18:18;9.55;;;2.72;;
52124;SDS011;38119;52.710;6.398;2023-04-12T00:20:45;13.20;;;2.65;;
52124;SDS011;38119;52.710;6.398;2023-04-12T00:23:11;9.65;;;2.60;;
52124;SDS011;38119;52.710;6.398;2023-04-12T00:25:37;9.57;;;2.85;;
52124;SDS011;38119;52.710;6.398;2023-04-12T00:28:03;8.75;;;2.55;;
52124;SDS011;38119;52.710;6.398;2023-04-12T00:30:30;10.48;;;2.65;;
52124;SDS011;38119;52.710;6.398;2023-04-12T00:32:55;9.38;;;2.42;;
52124;SDS011;38119;52.710;6.398;2023-04-12T00:35:21;11.60;;;3.25;;
52124;SDS011;38119;52.710;6.398;2023-04-12T00:37:47;7.93;;;2.13;;
52124;SDS011;38119;52.710;6.398;2023-04-12T00:40:12;8.20;;;2.63;;
52124;SDS011;38119;52.710;6.398;2023-04-12T00:42:38;12.13;;;2.80;;
52124;SDS011;38119;52.710;6.398;2023-04-12T00:45:03;9.30;;;2.72;;
52124;SDS011;38119;52.710;6.398;2023-04-12T00:47:30;12.60;;;2.72;;
52124;SDS011;38119;52.710;6.398;2023-04-12T00:49:59;11.23;;;2.63;;
52124;SDS011;38119;52.710;6.398;2023-04-12T00:52:26;8.05;;;2.67;;
52124;SDS011;38119;52.710;6.398;2023-04-12T00:54:52;10.55;;;2.70;;
52124;SDS011;38119;52.710;6.398;2023-04-12T00:57:18;8.48;;;2.45;;
52124;SDS011;38119;52.710;6.398;2023-04-12T00:59:44;9.15;;;2.78;;
52124;SDS011;38119;52.710;6.398;2023-04-12T01:02:10;8.63;;;2.53;;
52124;SDS011;38119;52.710;6.398;2023-04-12T01:04:36;11.93;;;3.08;;
52124;SDS011;38119;52.710;6.398;2023-04-12T01:07:13;13.88;;;3.20;;
52124;SDS011;38119;52.710;6.398;2023-04-12T01:09:56;12.88;;;2.95;;
52124;SDS011;38119;52.710;6.398;2023-04-12T01:12:50;9.80;;;3.00;;
52124;SDS011;38119;52.710;6.398;2023-04-12T01:15:22;13.00;;;3.08;;
52124;SDS011;38119;52.710;6.398;2023-04-12T01:17:57;9.63;;;2.72;;
52124;SDS011;38119;52.710;6.398;2023-04-12T01:20:32;10.48;;;2.38;;
52124;SDS011;38119;52.710;6.398;2023-04-12T01:28:46;8.90;;;2.30;;
52124;SDS011;38119;52.710;6.398;2023-04-12T01:31:16;8.98;;;2.17;;
52124;SDS011;38119;52.710;6.398;2023-04-12T01:33:43;5.88;;;2.22;;
52124;SDS011;38119;52.710;6.398;2023-04-12T01:36:14;9.00;;;2.28;;
52124;SDS011;38119;52.710;6.398;2023-04-12T01:38:42;8.30;;;2.28;;
52124;SDS011;38119;52.710;6.398;2023-04-12T01:41:08;9.05;;;2.20;;
52124;SDS011;38119;52.710;6.398;2023-04-12T01:43:41;11.88;;;2.78;;
52124;SDS011;38119;52.710;6.398;2023-04-12T01:46:08;11.60;;;2.63;;
52124;SDS011;38119;52.710;6.398;2023-04-12T01:48:36;10.68;;;2.30;;
52124;SDS011;38119;52.710;6.398;2023-04-12T01:51:06;5.55;;;2.17;;
52124;SDS011;38119;52.710;6.398;2023-04-12T01:53:42;11.48;;;2.90;;
52124;SDS011;38119;52.710;6.398;2023-04-12T01:56:14;7.05;;;2.28;;
52124;SDS011;38119;52.710;6.398;2023-04-12T01:58:43;6.70;;;2.10;;
52124;SDS011;38119;52.710;6.398;2023-04-12T02:01:11;7.18;;;2.10;;
52124;SDS011;38119;52.710;6.398;2023-04-12T02:03:42;14.90;;;3.05;;
52124;SDS011;38119;52.710;6.398;2023-04-12T02:06:09;7.45;;;2.40;;
52124;SDS011;38119;52.710;6.398;2023-04-12T02:08:35;9.20;;;2.13;;
52124;SDS011;38119;52.710;6.398;2023-04-12T02:11:08;8.32;;;2.45;;
52124;SDS011;38119;52.710;6.398;2023-04-12T02:13:36;10.52;;;2.60;;
52124;SDS011;38119;52.710;6.398;2023-04-12T02:16:04;9.82;;;2.40;;
52124;SDS011;38119;52.710;6.398;2023-04-12T02:18:31;9.95;;;2.60;;
52124;SDS011;38119;52.710;6.398;2023-04-12T02:20:59;10.95;;;2.85;;
52124;SDS011;38119;52.710;6.398;2023-04-12T02:23:24;11.25;;;2.53;;
52124;SDS011;38119;52.710;6.398;2023-04-12T02:25:51;9.48;;;2.60;;
52124;SDS011;38119;52.710;6.398;2023-04-12T02:28:16;10.32;;;2.58;;
52124;SDS011;38119;52.710;6.398;2023-04-12T02:30:42;8.43;;;2.20;;
52124;SDS011;38119;52.710;6.398;2023-04-12T02:33:07;9.65;;;2.50;;
52124;SDS011;38119;52.710;6.398;2023-04-12T02:35:33;9.00;;;2.63;;
52124;SDS011;38119;52.710;6.398;2023-04-12T02:38:02;5.72;;;2.20;;
52124;SDS011;38119;52.710;6.398;2023-04-12T02:40:32;7.00;;;2.53;;
52124;SDS011;38119;52.710;6.398;2023-04-12T02:42:58;10.27;;;2.38;;
52124;SDS011;38119;52.710;6.398;2023-04-12T02:45:24;10.95;;;2.75;;
52124;SDS011;38119;52.710;6.398;2023-04-12T02:47:50;6.80;;;2.13;;
52124;SDS011;38119;52.710;6.398;2023-04-12T02:50:15;9.07;;;2.30;;
52124;SDS011;38119;52.710;6.398;2023-04-12T02:52:41;7.60;;;2.30;;
52124;SDS011;38119;52.710;6.398;2023-04-12T02:55:07;6.07;;;1.98;;
52124;SDS011;38119;52.710;6.398;2023-04-12T02:57:33;8.27;;;2.38;;
52124;SDS011;38119;52.710;6.398;2023-04-12T02:59:58;11.05;;;2.45;;
52124;SDS011;38119;52.710;6.398;2023-04-12T03:02:24;6.25;;;1.98;;
52124;SDS011;38119;52.710;6.398;2023-04-12T03:04:49;6.88;;;1.80;;
52124;SDS011;38119;52.710;6.398;2023-04-12T03:07:16;7.82;;;1.92;;
52124;SDS011;38119;52.710;6.398;2023-04-12T03:09:43;10.63;;;2.40;;
52124;SDS011;38119;52.710;6.398;2023-04-12T03:12:10;8.68;;;2.05;;
52124;SDS011;38119;52.710;6.398;2023-04-12T03:14:35;6.45;;;2.10;;
52124;SDS011;38119;52.710;6.398;2023-04-12T03:17:01;5.28;;;1.85;;
52124;SDS011;38119;52.710;6.398;2023-04-12T03:19:26;6.53;;;2.17;;
52124;SDS011;38119;52.710;6.398;2023-04-12T03:21:53;6.75;;;1.95;;
52124;SDS011;38119;52.710;6.398;2023-04-12T03:24:18;10.88;;;2.45;;
52124;SDS011;38119;52.710;6.398;2023-04-12T03:26:44;5.03;;;1.83;;
52124;SDS011;38119;52.710;6.398;2023-04-12T03:29:10;8.10;;;2.20;;
52124;SDS011;38119;52.710;6.398;2023-04-12T03:31:36;6.07;;;1.80;;
52124;SDS011;38119;52.710;6.398;2023-04-12T03:34:01;7.60;;;2.50;;
52124;SDS011;38119;52.710;6.398;2023-04-12T03:36:28;8.57;;;2.30;;
52124;SDS011;38119;52.710;6.398;2023-04-12T03:38:54;6.80;;;2.30;;
52124;SDS011;38119;52.710;6.398;2023-04-12T03:41:20;6.32;;;2.22;;
52124;SDS011;38119;52.710;6.398;2023-04-12T03:43:47;7.35;;;2.20;;
52124;SDS011;38119;52.710;6.398;2023-04-12T03:46:13;7.75;;;2.28;;
52124;SDS011;38119;52.710;6.398;2023-04-12T03:48:39;7.70;;;2.60;;
52124;SDS011;38119;52.710;6.398;2023-04-12T03:51:05;7.22;;;2.80;;
52124;SDS011;38119;52.710;6.398;2023-04-12T03:53:32;10.57;;;2.88;;
52124;SDS011;38119;52.710;6.398;2023-04-12T03:55:58;10.55;;;3.05;;
52124;SDS011;38119;52.710;6.398;2023-04-12T03:58:24;5.72;;;2.60;;
52124;SDS011;38119;52.710;6.398;2023-04-12T04:00:50;6.90;;;2.95;;
52124;SDS011;38119;52.710;6.398;2023-04-12T04:03:15;10.25;;;3.33;;
52124;SDS011;38119;52.710;6.398;2023-04-12T04:05:42;9.48;;;3.60;;
52124;SDS011;38119;52.710;6.398;2023-04-12T04:08:07;10.82;;;3.38;;
52124;SDS011;38119;52.710;6.398;2023-04-12T04:10:34;9.75;;;3.72;;
52124;SDS011;38119;52.710;6.398;2023-04-12T04:13:00;10.65;;;3.63;;
52124;SDS011;38119;52.710;6.398;2023-04-12T04:15:25;10.23;;;4.50;;
52124;SDS011;38119;52.710;6.398;2023-04-12T04:17:51;11.70;;;4.35;;
52124;SDS011;38119;52.710;6.398;2023-04-12T04:20:17;10.65;;;4.43;;
52124;SDS011;38119;52.710;6.398;2023-04-12T04:22:43;10.15;;;4.28;;
52124;SDS011;38119;52.710;6.398;2023-04-12T04:25:12;10.20;;;4.65;;
52124;SDS011;38119;52.710;6.398;2023-04-12T04:27:39;10.88;;;3.97;;
52124;SDS011;38119;52.710;6.398;2023-04-12T04:30:06;9.30;;;4.45;;
52124;SDS011;38119;52.710;6.398;2023-04-12T04:32:32;10.55;;;4.07;;
52124;SDS011;38119;52.710;6.398;2023-04-12T04:34:59;10.98;;;4.47;;
52124;SDS011;38119;52.710;6.398;2023-04-12T04:37:25;10.00;;;3.92;;
52124;SDS011;38119;52.710;6.398;2023-04-12T04:39:51;9.77;;;3.90;;
52124;SDS011;38119;52.710;6.398;2023-04-12T04:42:17;10.80;;;3.40;;
52124;SDS011;38119;52.710;6.398;2023-04-12T04:44:43;6.97;;;3.40;;
52124;SDS011;38119;52.710;6.398;2023-04-12T04:47:08;11.50;;;3.72;;
52124;SDS011;38119;52.710;6.398;2023-04-12T04:49:37;9.70;;;3.65;;
52124;SDS011;38119;52.710;6.398;2023-04-12T04:52:03;9.52;;;3.45;;
52124;SDS011;38119;52.710;6.398;2023-04-12T04:54:28;7.90;;;3.95;;
52124;SDS011;38119;52.710;6.398;2023-04-12T04:56:55;8.40;;;3.10;;
52124;SDS011;38119;52.710;6.398;2023-04-12T04:59:21;8.45;;;3.10;;
52124;SDS011;38119;52.710;6.398;2023-04-12T05:01:48;8.77;;;2.92;;
52124;SDS011;38119;52.710;6.398;2023-04-12T05:04:13;9.20;;;3.30;;
52124;SDS011;38119;52.710;6.398;2023-04-12T05:06:39;9.85;;;3.08;;
52124;SDS011;38119;52.710;6.398;2023-04-12T05:09:04;8.20;;;2.88;;
52124;SDS011;38119;52.710;6.398;2023-04-12T05:11:30;8.88;;;2.88;;
52124;SDS011;38119;52.710;6.398;2023-04-12T05:13:55;10.48;;;2.85;;
52124;SDS011;38119;52.710;6.398;2023-04-12T05:16:21;10.55;;;2.70;;
52124;SDS011;38119;52.710;6.398;2023-04-12T05:18:47;7.00;;;3.00;;
52124;SDS011;38119;52.710;6.398;2023-04-12T05:21:12;6.93;;;3.08;;
52124;SDS011;38119;52.710;6.398;2023-04-12T05:23:41;8.32;;;3.05;;
52124;SDS011;38119;52.710;6.398;2023-04-12T05:26:08;6.18;;;2.60;;
52124;SDS011;38119;52.710;6.398;2023-04-12T05:28:34;4.53;;;2.38;;
52124;SDS011;38119;52.710;6.398;2023-04-12T05:31:00;8.43;;;2.70;;
52124;SDS011;38119;52.710;6.398;2023-04-12T05:33:26;5.45;;;2.53;;
52124;SDS011;38119;52.710;6.398;2023-04-12T05:35:51;6.55;;;2.15;;
52124;SDS011;38119;52.710;6.398;2023-04-12T05:38:17;7.18;;;2.55;;
52124;SDS011;38119;52.710;6.398;2023-04-12T05:40:42;5.55;;;2.40;;
52124;SDS011;38119;52.710;6.398;2023-04-12T05:43:08;8.15;;;2.42;;
52124;SDS011;38119;52.710;6.398;2023-04-12T05:45:37;7.85;;;2.53;;
52124;SDS011;38119;52.710;6.398;2023-04-12T05:48:06;7.35;;;2.10;;
52124;SDS011;38119;52.710;6.398;2023-04-12T05:50:32;6.03;;;2.13;;
52124;SDS011;38119;52.710;6.398;2023-04-12T05:52:59;7.25;;;2.35;;
52124;SDS011;38119;52.710;6.398;2023-04-12T05:55:25;6.97;;;2.38;;
52124;SDS011;38119;52.710;6.398;2023-04-12T05:57:51;8.45;;;2.45;;
52124;SDS011;38119;52.710;6.398;2023-04-12T06:00:18;5.65;;;2.13;;
52124;SDS011;38119;52.710;6.398;2023-04-12T06:02:45;4.60;;;2.40;;
52124;SDS011;38119;52.710;6.398;2023-04-12T06:05:13;7.07;;;2.50;;
52124;SDS011;38119;52.710;6.398;2023-04-12T06:07:39;6.75;;;2.63;;
52124;SDS011;38119;52.710;6.398;2023-04-12T06:10:10;6.93;;;2.88;;
52124;SDS011;38119;52.710;6.398;2023-04-12T06:12:37;6.93;;;2.60;;
52124;SDS011;38119;52.710;6.398;2023-04-12T06:15:02;6.05;;;2.33;;
52124;SDS011;38119;52.710;6.398;2023-04-12T06:17:28;5.82;;;2.55;;
52124;SDS011;38119;52.710;6.398;2023-04-12T06:19:54;6.70;;;2.72;;
52124;SDS011;38119;52.710;6.398;2023-04-12T06:22:19;8.18;;;2.72;;
52124;SDS011;38119;52.710;6.398;2023-04-12T06:24:45;5.28;;;2.50;;
52124;SDS011;38119;52.710;6.398;2023-04-12T06:27:11;8.13;;;2.80;;
52124;SDS011;38119;52.710;6.398;2023-04-12T06:29:36;6.32;;;3.15;;
52124;SDS011;38119;52.710;6.398;2023-04-12T06:32:02;7.32;;;2.92;;
52124;SDS011;38119;52.710;6.398;2023-04-12T06:34:27;7.82;;;2.65;;
52124;SDS011;38119;52.710;6.398;2023-04-12T06:36:53;5.25;;;2.67;;
52124;SDS011;38119;52.710;6.398;2023-04-12T06:39:19;5.47;;;2.60;;
52124;SDS011;38119;52.710;6.398;2023-04-12T06:41:44;5.15;;;2.97;;
52124;SDS011;38119;52.710;6.398;2023-04-12T06:44:14;6.68;;;3.03;;
52124;SDS011;38119;52.710;6.398;2023-04-12T06:46:40;6.45;;;2.75;;
52124;SDS011;38119;52.710;6.398;2023-04-12T06:49:06;8.52;;;3.00;;
52124;SDS011;38119;52.710;6.398;2023-04-12T06:51:31;6.20;;;2.90;;
52124;SDS011;38119;52.710;6.398;2023-04-12T06:53:59;6.05;;;3.00;;
52124;SDS011;38119;52.710;6.398;2023-04-12T06:56:25;5.18;;;3.42;;
52124;SDS011;38119;52.710;6.398;2023-04-12T06:58:51;5.40;;;3.05;;
52124;SDS011;38119;52.710;6.398;2023-04-12T07:01:17;6.22;;;2.83;;
52124;SDS011;38119;52.710;6.398;2023-04-12T07:03:42;5.28;;;3.13;;
52124;SDS011;38119;52.710;6.398;2023-04-12T07:06:08;5.25;;;3.08;;
52124;SDS011;38119;52.710;6.398;2023-04-12T07:08:34;5.80;;;3.38;;
52124;SDS011;38119;52.710;6.398;2023-04-12T07:11:01;6.68;;;3.50;;
52124;SDS011;38119;52.710;6.398;2023-04-12T07:13:27;6.07;;;3.20;;
52124;SDS011;38119;52.710;6.398;2023-04-12T07:15:53;8.50;;;3.92;;
52124;SDS011;38119;52.710;6.398;2023-04-12T07:18:19;8.18;;;3.70;;
52124;SDS011;38119;52.710;6.398;2023-04-12T07:20:45;7.18;;;3.70;;
52124;SDS011;38119;52.710;6.398;2023-04-12T07:23:17;7.90;;;4.00;;
52124;SDS011;38119;52.710;6.398;2023-04-12T07:25:42;8.45;;;3.90;;
52124;SDS011;38119;52.710;6.398;2023-04-12T07:28:08;5.30;;;3.85;;
52124;SDS011;38119;52.710;6.398;2023-04-12T07:30:34;7.72;;;4.07;;
52124;SDS011;38119;52.710;6.398;2023-04-12T07:33:00;6.60;;;3.80;;
52124;SDS011;38119;52.710;6.398;2023-04-12T07:35:29;6.90;;;4.13;;
52124;SDS011;38119;52.710;6.398;2023-04-12T07:37:55;6.50;;;4.10;;
52124;SDS011;38119;52.710;6.398;2023-04-12T07:40:21;7.55;;;4.30;;
52124;SDS011;38119;52.710;6.398;2023-04-12T07:42:47;6.60;;;4.05;;
52124;SDS011;38119;52.710;6.398;2023-04-12T07:45:13;7.03;;;4.38;;
52124;SDS011;38119;52.710;6.398;2023-04-12T07:47:38;7.85;;;4.38;;
52124;SDS011;38119;52.710;6.398;2023-04-12T07:50:04;6.38;;;4.18;;
52124;SDS011;38119;52.710;6.398;2023-04-12T07:52:31;7.22;;;4.43;;
52124;SDS011;38119;52.710;6.398;2023-04-12T07:54:56;11.73;;;5.00;;
52124;SDS011;38119;52.710;6.398;2023-04-12T07:57:22;6.93;;;5.05;;
52124;SDS011;38119;52.710;6.398;2023-04-12T07:59:48;8.23;;;4.82;;
52124;SDS011;38119;52.710;6.398;2023-04-12T08:02:14;6.80;;;5.20;;
52124;SDS011;38119;52.710;6.398;2023-04-12T08:04:48;7.38;;;5.10;;
52124;SDS011;38119;52.710;6.398;2023-04-12T08:07:14;6.78;;;4.75;;
52124;SDS011;38119;52.710;6.398;2023-04-12T08:09:40;8.95;;;5.43;;
52124;SDS011;38119;52.710;6.398;2023-04-12T08:12:06;7.28;;;5.32;;
52124;SDS011;38119;52.710;6.398;2023-04-12T08:14:31;7.72;;;5.38;;
52124;SDS011;38119;52.710;6.398;2023-04-12T08:16:57;8.50;;;5.40;;
52124;SDS011;38119;52.710;6.398;2023-04-12T08:19:23;9.90;;;5.57;;
52124;SDS011;38119;52.710;6.398;2023-04-12T08:21:48;6.78;;;5.88;;
52124;SDS011;38119;52.710;6.398;2023-04-12T08:24:14;8.55;;;5.22;;
52124;SDS011;38119;52.710;6.398;2023-04-12T08:26:39;7.43;;;5.80;;
52124;SDS011;38119;52.710;6.398;2023-04-12T08:29:05;7.28;;;5.07;;
52124;SDS011;38119;52.710;6.398;2023-04-12T08:31:31;7.55;;;5.57;;
52124;SDS011;38119;52.710;6.398;2023-04-12T08:33:57;7.68;;;5.80;;
52124;SDS011;38119;52.710;6.398;2023-04-12T08:36:24;7.20;;;5.50;;
52124;SDS011;38119;52.710;6.398;2023-04-12T08:38:51;9.55;;;6.28;;
52124;SDS011;38119;52.710;6.398;2023-04-12T08:41:19;7.97;;;5.55;;
52124;SDS011;38119;52.710;6.398;2023-04-12T08:43:45;11.73;;;6.13;;
52124;SDS011;38119;52.710;6.398;2023-04-12T08:46:12;8.25;;;5.88;;
52124;SDS011;38119;52.710;6.398;2023-04-12T08:48:45;7.75;;;5.43;;
52124;SDS011;38119;52.710;6.398;2023-04-12T08:51:12;8.43;;;6.30;;
52124;SDS011;38119;52.710;6.398;2023-04-12T08:53:39;8.65;;;5.97;;
52124;SDS011;38119;52.710;6.398;2023-04-12T08:56:06;8.13;;;6.35;;
52124;SDS011;38119;52.710;6.398;2023-04-12T08:58:36;9.32;;;5.88;;
52124;SDS011;38119;52.710;6.398;2023-04-12T09:01:06;8.13;;;5.97;;
52124;SDS011;38119;52.710;6.398;2023-04-12T09:03:35;10.35;;;5.70;;
52124;SDS011;38119;52.710;6.398;2023-04-12T09:06:01;8.27;;;5.25;;
52124;SDS011;38119;52.710;6.398;2023-04-12T09:08:30;7.25;;;5.25;;
52124;SDS011;38119;52.710;6.398;2023-04-12T09:10:56;6.50;;;5.40;;
52124;SDS011;38119;52.710;6.398;2023-04-12T09:13:34;8.13;;;5.65;;
52124;SDS011;38119;52.710;6.398;2023-04-12T09:16:03;9.88;;;5.50;;
52124;SDS011;38119;52.710;6.398;2023-04-12T09:18:29;7.65;;;5.65;;
52124;SDS011;38119;52.710;6.398;2023-04-12T09:21:07;8.18;;;5.82;;
52124;SDS011;38119;52.710;6.398;2023-04-12T09:23:33;8.38;;;4.93;;
52124;SDS011;38119;52.710;6.398;2023-04-12T09:26:02;6.40;;;5.10;;
52124;SDS011;38119;52.710;6.398;2023-04-12T09:28:32;6.55;;;4.80;;
52124;SDS011;38119;52.710;6.398;2023-04-12T09:30:58;7.43;;;5.28;;
52124;SDS011;38119;52.710;6.398;2023-04-12T09:33:37;8.70;;;5.35;;
52124;SDS011;38119;52.710;6.398;2023-04-12T09:36:06;8.93;;;5.53;;
52124;SDS011;38119;52.710;6.398;2023-04-12T09:38:38;7.57;;;5.28;;
52124;SDS011;38119;52.710;6.398;2023-04-12T09:41:18;7.15;;;5.18;;
52124;SDS011;38119;52.710;6.398;2023-04-12T09:43:46;8.98;;;5.18;;
52124;SDS011;38119;52.710;6.398;2023-04-12T09:46:12;9.73;;;5.13;;
52124;SDS011;38119;52.710;6.398;2023-04-12T09:48:39;11.80;;;4.50;;
52124;SDS011;38119;52.710;6.398;2023-04-12T09:51:05;7.90;;;4.28;;
52124;SDS011;38119;52.710;6.398;2023-04-12T09:53:32;8.00;;;4.10;;
52124;SDS011;38119;52.710;6.398;2023-04-12T09:56:00;12.20;;;4.85;;
52124;SDS011;38119;52.710;6.398;2023-04-12T09:58:27;8.82;;;4.30;;
52124;SDS011;38119;52.710;6.398;2023-04-12T10:00:55;10.70;;;4.03;;
52124;SDS011;38119;52.710;6.398;2023-04-12T10:03:23;10.35;;;3.85;;
52124;SDS011;38119;52.710;6.398;2023-04-12T10:05:49;9.50;;;4.13;;
52124;SDS011;38119;52.710;6.398;2023-04-12T10:08:15;9.85;;;3.92;;
52124;SDS011;38119;52.710;6.398;2023-04-12T10:10:43;9.18;;;4.78;;
52124;SDS011;38119;52.710;6.398;2023-04-12T10:13:10;11.18;;;3.97;;
52124;SDS011;38119;52.710;6.398;2023-04-12T10:15:36;12.57;;;4.43;;
52124;SDS011;38119;52.710;6.398;2023-04-12T10:18:03;13.73;;;4.20;;
52124;SDS011;38119;52.710;6.398;2023-04-12T10:20:31;9.95;;;4.03;;
52124;SDS011;38119;52.710;6.398;2023-04-12T10:22:57;7.13;;;3.90;;
52124;SDS011;38119;52.710;6.398;2023-04-12T10:25:24;8.75;;;3.80;;
52124;SDS011;38119;52.710;6.398;2023-04-12T10:27:50;9.20;;;3.28;;
52124;SDS011;38119;52.710;6.398;2023-04-12T10:30:29;11.95;;;3.67;;
52124;SDS011;38119;52.710;6.398;2023-04-12T10:35:27;12.52;;;3.03;;
52124;SDS011;38119;52.710;6.398;2023-04-12T10:38:00;10.00;;;2.78;;
52124;SDS011;38119;52.710;6.398;2023-04-12T10:40:28;13.45;;;3.03;;
52124;SDS011;38119;52.710;6.398;2023-04-12T10:45:42;10.27;;;3.10;;
52124;SDS011;38119;52.710;6.398;2023-04-12T10:48:27;9.88;;;2.83;;
52124;SDS011;38119;52.710;6.398;2023-04-12T10:51:19;14.75;;;3.28;;
52124;SDS011;38119;52.710;6.398;2023-04-12T10:54:37;10.40;;;2.60;;
52124;SDS011;38119;52.710;6.398;2023-04-12T10:56:41;11.77;;;2.90;;
52124;SDS011;38119;52.710;6.398;2023-04-12T10:59:12;13.05;;;3.00;;
52124;SDS011;38119;52.710;6.398;2023-04-12T11:01:38;15.60;;;3.20;;
52124;SDS011;38119;52.710;6.398;2023-04-12T11:09:25;10.60;;;2.65;;
52124;SDS011;38119;52.710;6.398;2023-04-12T11:12:15;10.82;;;3.00;;
52124;SDS011;38119;52.710;6.398;2023-04-12T11:14:47;11.23;;;2.53;;
52124;SDS011;38119;52.710;6.398;2023-04-12T11:19:43;10.95;;;3.00;;
52124;SDS011;38119;52.710;6.398;2023-04-12T11:22:10;11.32;;;3.20;;
52124;SDS011;38119;52.710;6.398;2023-04-12T11:24:43;15.05;;;3.42;;
52124;SDS011;38119;52.710;6.398;2023-04-12T11:27:10;14.15;;;3.25;;
52124;SDS011;38119;52.710;6.398;2023-04-12T11:29:36;11.68;;;2.63;;
52124;SDS011;38119;52.710;6.398;2023-04-12T11:32:03;14.02;;;3.15;;
52124;SDS011;38119;52.710;6.398;2023-04-12T11:34:34;11.27;;;3.05;;
52124;SDS011;38119;52.710;6.398;2023-04-12T11:37:01;13.38;;;3.00;;
52124;SDS011;38119;52.710;6.398;2023-04-12T11:39:34;12.30;;;3.25;;
52124;SDS011;38119;52.710;6.398;2023-04-12T11:42:02;10.55;;;3.22;;
52124;SDS011;38119;52.710;6.398;2023-04-12T11:44:28;14.15;;;3.20;;
52124;SDS011;38119;52.710;6.398;2023-04-12T11:46:57;10.52;;;2.72;;
52124;SDS011;38119;52.710;6.398;2023-04-12T11:49:23;12.85;;;3.00;;
52124;SDS011;38119;52.710;6.398;2023-04-12T11:51:52;11.15;;;3.53;;
52124;SDS011;38119;52.710;6.398;2023-04-12T11:54:28;14.80;;;2.75;;
52124;SDS011;38119;52.710;6.398;2023-04-12T11:56:56;9.55;;;2.70;;
52124;SDS011;38119;52.710;6.398;2023-04-12T11:59:22;16.17;;;3.08;;
52124;SDS011;38119;52.710;6.398;2023-04-12T12:01:58;12.38;;;2.97;;
52124;SDS011;38119;52.710;6.398;2023-04-12T12:04:25;12.77;;;2.90;;
52124;SDS011;38119;52.710;6.398;2023-04-12T12:06:54;12.98;;;3.20;;
52124;SDS011;38119;52.710;6.398;2023-04-12T12:09:21;12.63;;;2.53;;
52124;SDS011;38119;52.710;6.398;2023-04-12T12:11:47;11.32;;;2.15;;
52124;SDS011;38119;52.710;6.398;2023-04-12T12:14:17;12.43;;;2.78;;
52124;SDS011;38119;52.710;6.398;2023-04-12T12:16:43;13.43;;;2.85;;
52124;SDS011;38119;52.710;6.398;2023-04-12T12:19:36;9.90;;;2.58;;
52124;SDS011;38119;52.710;6.398;2023-04-12T12:22:08;15.77;;;2.58;;
52124;SDS011;38119;52.710;6.398;2023-04-12T12:24:43;11.98;;;2.60;;
52124;SDS011;38119;52.710;6.398;2023-04-12T12:27:10;16.08;;;3.50;;
52124;SDS011;38119;52.710;6.398;2023-04-12T12:29:36;13.48;;;2.80;;
52124;SDS011;38119;52.710;6.398;2023-04-12T12:32:08;15.40;;;3.45;;
52124;SDS011;38119;52.710;6.398;2023-04-12T12:34:38;15.80;;;3.35;;
52124;SDS011;38119;52.710;6.398;2023-04-12T12:37:08;11.00;;;2.60;;
52124;SDS011;38119;52.710;6.398;2023-04-12T12:39:36;12.63;;;3.28;;
52124;SDS011;38119;52.710;6.398;2023-04-12T12:42:02;17.30;;;3.45;;
52124;SDS011;38119;52.710;6.398;2023-04-12T12:44:30;15.05;;;2.85;;
52124;SDS011;38119;52.710;6.398;2023-04-12T12:46:59;15.57;;;2.92;;
52124;SDS011;38119;52.710;6.398;2023-04-12T12:49:26;14.82;;;3.10;;
52124;SDS011;38119;52.710;6.398;2023-04-12T12:51:51;13.15;;;2.83;;
52124;SDS011;38119;52.710;6.398;2023-04-12T12:54:17;16.77;;;3.30;;
52124;SDS011;38119;52.710;6.398;2023-04-12T12:56:43;14.73;;;2.83;;
52124;SDS011;38119;52.710;6.398;2023-04-12T12:59:09;11.60;;;2.53;;
52124;SDS011;38119;52.710;6.398;2023-04-12T13:01:34;13.07;;;2.63;;
52124;SDS011;38119;52.710;6.398;2023-04-12T13:04:00;10.20;;;2.40;;
52124;SDS011;38119;52.710;6.398;2023-04-12T13:06:25;13.48;;;2.40;;
52124;SDS011;38119;52.710;6.398;2023-04-12T13:08:52;14.95;;;2.83;;
52124;SDS011;38119;52.710;6.398;2023-04-12T13:11:18;11.10;;;2.30;;
52124;SDS011;38119;52.710;6.398;2023-04-12T13:13:45;12.65;;;2.80;;
52124;SDS011;38119;52.710;6.398;2023-04-12T13:16:10;15.85;;;3.35;;
52124;SDS011;38119;52.710;6.398;2023-04-12T13:18:36;14.30;;;2.78;;
52124;SDS011;38119;52.710;6.398;2023-04-12T13:21:02;11.90;;;2.45;;
52124;SDS011;38119;52.710;6.398;2023-04-12T13:23:27;16.38;;;2.70;;
52124;SDS011;38119;52.710;6.398;2023-04-12T13:25:53;11.68;;;2.88;;
52124;SDS011;38119;52.710;6.398;2023-04-12T13:28:18;10.20;;;2.55;;
52124;SDS011;38119;52.710;6.398;2023-04-12T13:30:44;8.65;;;1.85;;
52124;SDS011;38119;52.710;6.398;2023-04-12T13:33:12;8.38;;;1.70;;
52124;SDS011;38119;52.710;6.398;2023-04-12T13:35:38;9.40;;;1.90;;
52124;SDS011;38119;52.710;6.398;2023-04-12T13:38:04;5.78;;;1.30;;
52124;SDS011;38119;52.710;6.398;2023-04-12T13:40:29;7.53;;;1.45;;
52124;SDS011;38119;52.710;6.398;2023-04-12T13:42:55;5.43;;;1.35;;
52124;SDS011;38119;52.710;6.398;2023-04-12T13:45:20;7.68;;;1.80;;
52124;SDS011;38119;52.710;6.398;2023-04-12T13:47:46;6.93;;;1.55;;
52124;SDS011;38119;52.710;6.398;2023-04-12T13:50:12;6.35;;;1.50;;
52124;SDS011;38119;52.710;6.398;2023-04-12T13:52:37;9.98;;;2.72;;
52124;SDS011;38119;52.710;6.398;2023-04-12T13:55:03;7.60;;;2.08;;
52124;SDS011;38119;52.710;6.398;2023-04-12T13:57:32;8.38;;;2.00;;
52124;SDS011;38119;52.710;6.398;2023-04-12T13:59:58;9.27;;;1.70;;
52124;SDS011;38119;52.710;6.398;2023-04-12T14:02:24;8.27;;;1.73;;
52124;SDS011;38119;52.710;6.398;2023-04-12T14:04:50;7.15;;;1.95;;
52124;SDS011;38119;52.710;6.398;2023-04-12T14:07:17;6.35;;;1.95;;
52124;SDS011;38119;52.710;6.398;2023-04-12T14:09:43;6.47;;;1.42;;
52124;SDS011;38119;52.710;6.398;2023-04-12T14:12:08;9.68;;;2.10;;
52124;SDS011;38119;52.710;6.398;2023-04-12T14:14:34;5.18;;;1.40;;
52124;SDS011;38119;52.710;6.398;2023-04-12T14:17:00;5.43;;;1.75;;
52124;SDS011;38119;52.710;6.398;2023-04-12T14:19:26;9.10;;;2.05;;
52124;SDS011;38119;52.710;6.398;2023-04-12T14:21:51;10.27;;;2.17;;
52124;SDS011;38119;52.710;6.398;2023-04-12T14:24:17;10.60;;;2.20;;
52124;SDS011;38119;52.710;6.398;2023-04-12T14:26:44;6.15;;;1.73;;
52124;SDS011;38119;52.710;6.398;2023-04-12T14:29:10;8.02;;;1.75;;
52124;SDS011;38119;52.710;6.398;2023-04-12T14:31:36;6.97;;;1.92;;
52124;SDS011;38119;52.710;6.398;2023-04-12T14:34:02;7.90;;;1.70;;
52124;SDS011;38119;52.710;6.398;2023-04-12T14:36:28;9.25;;;1.92;;
52124;SDS011;38119;52.710;6.398;2023-04-12T14:38:55;7.13;;;1.90;;
52124;SDS011;38119;52.710;6.398;2023-04-12T14:41:20;6.80;;;1.75;;
52124;SDS011;38119;52.710;6.398;2023-04-12T14:43:46;9.18;;;1.65;;
52124;SDS011;38119;52.710;6.398;2023-04-12T14:46:11;7.65;;;2.13;;
52124;SDS011;38119;52.710;6.398;2023-04-12T14:48:37;6.55;;;1.85;;
52124;SDS011;38119;52.710;6.398;2023-04-12T14:51:03;8.07;;;2.00;;
52124;SDS011;38119;52.710;6.398;2023-04-12T14:53:29;8.27;;;2.42;;
52124;SDS011;38119;52.710;6.398;2023-04-12T14:55:55;9.57;;;2.17;;
52124;SDS011;38119;52.710;6.398;2023-04-12T14:58:20;14.98;;;1.73;;
52124;SDS011;38119;52.710;6.398;2023-04-12T15:00:46;9.85;;;2.35;;
52124;SDS011;38119;52.710;6.398;2023-04-12T15:03:11;9.05;;;1.88;;